createdAt,value
2016-06-15T00:00:31.956Z,949.08
2016-06-15T00:01:31.960Z,949.08
2016-06-15T00:02:31.978Z,949.09
2016-06-15T00:03:31.981Z,949.07
2016-06-15T00:04:31.984Z,949.11
2016-06-15T00:05:32.003Z,949.19
2016-06-15T00:06:32.006Z,949.16
2016-06-15T00:07:32.025Z,949.19
2016-06-15T00:08:32.028Z,949.18
2016-06-15T00:09:32.046Z,949.19
2016-06-15T00:10:32.050Z,949.19
2016-06-15T00:11:32.068Z,949.15
2016-06-15T00:12:32.087Z,949.13
2016-06-15T00:13:32.089Z,949.14
2016-06-15T00:14:32.109Z,949.12
2016-06-15T00:15:32.112Z,949.11
2016-06-15T00:16:32.115Z,949.09
2016-06-15T00:17:32.134Z,949.09
2016-06-15T00:18:32.137Z,949.12
2016-06-15T00:19:32.155Z,949.06
2016-06-15T00:20:32.158Z,949.09
2016-06-15T00:21:32.194Z,949.05
2016-06-15T00:22:32.180Z,949.03
2016-06-15T00:23:32.200Z,949.05
2016-06-15T00:24:32.202Z,949.08
2016-06-15T00:25:32.221Z,949.02
2016-06-15T00:26:32.239Z,949.06
2016-06-15T00:27:32.243Z,949.03
2016-06-15T00:28:32.245Z,949.09
2016-06-15T00:29:32.264Z,949.11
2016-06-15T00:30:32.266Z,949.11
2016-06-15T00:31:32.286Z,949.08
2016-06-15T00:32:32.289Z,949.12
2016-06-15T00:33:32.308Z,949.15
2016-06-15T00:34:32.311Z,949.15
2016-06-15T00:35:32.329Z,949.16
2016-06-15T00:36:32.333Z,949.15
2016-06-15T00:37:32.351Z,949.15
2016-06-15T00:38:32.354Z,949.16
2016-06-15T00:39:32.374Z,949.18
2016-06-15T00:40:32.377Z,949.16
2016-06-15T00:41:32.394Z,949.17
2016-06-15T00:42:32.414Z,949.19
2016-06-15T00:43:32.417Z,949.22
2016-06-15T00:44:32.420Z,949.2
2016-06-15T00:45:32.438Z,949.19
2016-06-15T00:46:32.441Z,949.19
2016-06-15T00:47:32.460Z,949.2
2016-06-15T00:48:32.479Z,949.19
2016-06-15T00:49:32.482Z,949.2
2016-06-15T00:50:32.500Z,949.21
2016-06-15T00:51:32.504Z,949.24
2016-06-15T00:52:32.506Z,949.22
2016-06-15T00:53:32.542Z,949.24
2016-06-15T00:54:32.529Z,949.19
2016-06-15T00:55:32.548Z,949.23
2016-06-15T00:56:32.551Z,949.21
2016-06-15T00:57:32.569Z,949.2
2016-06-15T00:58:32.603Z,949.19
2016-06-15T00:59:32.658Z,949.17
2016-06-15T01:00:32.713Z,949.19
2016-06-15T01:01:32.752Z,949.18
2016-06-15T01:02:32.807Z,949.18
2016-06-15T01:03:32.828Z,949.16
2016-06-15T01:04:32.860Z,949.15
2016-06-15T01:05:32.876Z,949.14
2016-06-15T01:06:32.907Z,949.13
2016-06-15T01:07:32.923Z,949.1
2016-06-15T01:08:32.932Z,949.09
2016-06-15T01:09:32.957Z,949.06
2016-06-15T01:10:32.964Z,949.09
2016-06-15T01:11:32.989Z,949.07
2016-06-15T01:12:33.011Z,949.08
2016-06-15T01:13:33.017Z,949.1
2016-06-15T01:14:33.021Z,949.09
2016-06-15T01:15:33.042Z,949.11
2016-06-15T01:16:33.047Z,949.11
2016-06-15T01:17:33.066Z,949.08
2016-06-15T01:18:33.071Z,949.11
2016-06-15T01:19:33.090Z,949.09
2016-06-15T01:20:33.094Z,949.09
2016-06-15T01:21:33.114Z,949.13
2016-06-15T01:22:33.118Z,949.12
2016-06-15T01:23:33.136Z,949.07
2016-06-15T01:24:33.139Z,949.09
2016-06-15T01:25:33.158Z,949.11
2016-06-15T01:26:33.161Z,949.09
2016-06-15T01:27:33.181Z,949.08
2016-06-15T01:28:33.198Z,949.08
2016-06-15T01:29:33.202Z,949.14
2016-06-15T01:30:33.204Z,949.12
2016-06-15T01:31:33.224Z,949.11
2016-06-15T01:32:33.226Z,949.11
2016-06-15T01:33:33.245Z,949.09
2016-06-15T01:34:33.247Z,949.08
2016-06-15T01:35:33.251Z,949.1
2016-06-15T01:36:33.269Z,949.08
2016-06-15T01:37:33.289Z,949.12
2016-06-15T01:38:33.292Z,949.09
2016-06-15T01:39:33.310Z,949.17
2016-06-15T01:40:33.313Z,949.12
2016-06-15T01:41:33.332Z,949.14
2016-06-15T01:42:33.335Z,949.08
2016-06-15T01:43:33.354Z,949.11
2016-06-15T01:44:33.358Z,949.12
2016-06-15T01:45:33.375Z,949.13
2016-06-15T01:46:33.378Z,949.16
2016-06-15T01:47:33.397Z,949.1
2016-06-15T01:48:33.401Z,949.12
2016-06-15T01:49:33.419Z,949.14
2016-06-15T01:50:33.438Z,949.15
2016-06-15T01:51:33.441Z,949.13
2016-06-15T01:52:33.460Z,949.14
2016-06-15T01:53:33.463Z,949.12
2016-06-15T01:54:33.466Z,949.14
2016-06-15T01:55:33.484Z,949.11
2016-06-15T01:56:33.487Z,949.11
2016-06-15T01:57:33.506Z,949.09
2016-06-15T01:58:33.509Z,949.14
2016-06-15T01:59:33.529Z,949.11
2016-06-15T02:00:33.532Z,949.08
2016-06-15T02:01:33.550Z,949.12
2016-06-15T02:02:33.553Z,949.06
2016-06-15T02:03:33.556Z,949.09
2016-06-15T02:04:33.575Z,949.06
2016-06-15T02:05:33.593Z,949.05
2016-06-15T02:06:33.596Z,949.06
2016-06-15T02:07:33.615Z,949.02
2016-06-15T02:08:33.618Z,949.02
2016-06-15T02:09:33.621Z,948.98
2016-06-15T02:10:33.640Z,949.01
2016-06-15T02:11:33.644Z,949
2016-06-15T02:12:33.662Z,948.97
2016-06-15T02:13:33.665Z,948.97
2016-06-15T02:14:33.684Z,948.93
2016-06-15T02:15:33.703Z,948.93
2016-06-15T02:16:33.706Z,948.97
2016-06-15T02:17:33.724Z,948.97
2016-06-15T02:18:33.727Z,948.95
2016-06-15T02:19:33.746Z,948.94
2016-06-15T02:20:33.764Z,948.93
2016-06-15T02:21:33.752Z,949
2016-06-15T02:22:33.771Z,948.97
2016-06-15T02:23:33.773Z,948.96
2016-06-15T02:24:33.793Z,948.94
2016-06-15T02:25:33.795Z,948.91
2016-06-15T02:26:33.814Z,948.94
2016-06-15T02:27:33.817Z,948.96
2016-06-15T02:28:33.836Z,948.97
2016-06-15T02:29:33.838Z,948.94
2016-06-15T02:30:33.858Z,948.91
2016-06-15T02:31:33.860Z,948.92
2016-06-15T02:32:33.880Z,948.94
2016-06-15T02:33:33.883Z,948.95
2016-06-15T02:34:33.901Z,948.92
2016-06-15T02:35:33.904Z,948.95
2016-06-15T02:36:33.923Z,948.95
2016-06-15T02:37:33.926Z,948.93
2016-06-15T02:38:33.944Z,948.94
2016-06-15T02:39:33.947Z,948.94
2016-06-15T02:40:33.966Z,948.92
2016-06-15T02:41:33.986Z,948.91
2016-06-15T02:42:33.988Z,948.89
2016-06-15T02:43:33.992Z,948.91
2016-06-15T02:44:34.010Z,948.92
2016-06-15T02:45:34.013Z,948.88
2016-06-15T02:46:34.032Z,948.88
2016-06-15T02:47:34.035Z,948.86
2016-06-15T02:48:34.054Z,948.9
2016-06-15T02:49:34.057Z,948.85
2016-06-15T02:50:34.076Z,948.86
2016-06-15T02:51:34.078Z,948.86
2016-06-15T02:52:34.098Z,948.87
2016-06-15T02:53:34.100Z,948.85
2016-06-15T02:54:34.119Z,948.85
2016-06-15T02:55:34.122Z,948.84
2016-06-15T02:56:34.141Z,948.81
2016-06-15T02:57:34.143Z,948.8
2016-06-15T02:58:34.147Z,948.84
2016-06-15T02:59:34.165Z,948.8
2016-06-15T03:00:34.184Z,948.79
2016-06-15T03:01:34.203Z,948.79
2016-06-15T03:02:34.207Z,948.78
2016-06-15T03:03:34.209Z,948.8
2016-06-15T03:04:34.228Z,948.76
2016-06-15T03:05:34.231Z,948.77
2016-06-15T03:06:34.250Z,948.76
2016-06-15T03:07:34.253Z,948.79
2016-06-15T03:08:34.272Z,948.75
2016-06-15T03:09:34.275Z,948.75
2016-06-15T03:10:34.277Z,948.76
2016-06-15T03:11:34.296Z,948.75
2016-06-15T03:12:34.299Z,948.77
2016-06-15T03:13:34.318Z,948.73
2016-06-15T03:14:34.321Z,948.75
2016-06-15T03:15:34.340Z,948.74
2016-06-15T03:16:34.358Z,948.75
2016-06-15T03:17:34.362Z,948.71
2016-06-15T03:18:34.380Z,948.74
2016-06-15T03:19:34.383Z,948.72
2016-06-15T03:20:34.745Z,948.73
2016-06-15T03:21:34.405Z,948.74
2016-06-15T03:22:34.423Z,948.72
2016-06-15T03:23:34.427Z,948.74
2016-06-15T03:24:34.429Z,948.72
2016-06-15T03:25:34.449Z,948.68
2016-06-15T03:26:34.467Z,948.7
2016-06-15T03:27:34.470Z,948.7
2016-06-15T03:28:34.473Z,948.69
2016-06-15T03:29:34.492Z,948.69
2016-06-15T03:30:34.495Z,948.66
2016-06-15T03:31:34.514Z,948.7
2016-06-15T03:32:34.548Z,948.67
2016-06-15T03:33:34.535Z,948.66
2016-06-15T03:34:34.539Z,948.66
2016-06-15T03:35:34.557Z,948.68
2016-06-15T03:36:34.577Z,948.66
2016-06-15T03:37:34.580Z,948.64
2016-06-15T03:38:34.583Z,948.66
2016-06-15T03:39:34.601Z,948.6
2016-06-15T03:40:34.604Z,948.61
2016-06-15T03:41:34.623Z,948.65
2016-06-15T03:42:34.626Z,948.62
2016-06-15T03:43:34.644Z,948.64
2016-06-15T03:44:34.647Z,948.63
2016-06-15T03:45:34.667Z,948.62
2016-06-15T03:46:34.669Z,948.62
2016-06-15T03:47:34.689Z,948.63
2016-06-15T03:48:34.691Z,948.63
2016-06-15T03:49:34.710Z,948.63
2016-06-15T03:50:34.712Z,948.62
2016-06-15T03:51:34.732Z,948.64
2016-06-15T03:52:34.734Z,948.64
2016-06-15T03:53:34.754Z,948.65
2016-06-15T03:54:34.756Z,948.62
2016-06-15T03:55:34.760Z,948.64
2016-06-15T03:56:34.778Z,948.62
2016-06-15T03:57:34.797Z,948.6
2016-06-15T03:58:34.801Z,948.59
2016-06-15T03:59:34.818Z,948.56
2016-06-15T04:00:34.821Z,948.55
2016-06-15T04:01:34.841Z,948.56
2016-06-15T04:02:34.843Z,948.52
2016-06-15T04:03:34.863Z,948.53
2016-06-15T04:04:34.865Z,948.54
2016-06-15T04:05:34.884Z,948.55
2016-06-15T04:06:34.887Z,948.59
2016-06-15T04:07:34.906Z,948.56
2016-06-15T04:08:34.909Z,948.56
2016-06-15T04:09:34.928Z,948.55
2016-06-15T04:10:34.931Z,948.52
2016-06-15T04:11:34.934Z,948.51
2016-06-15T04:12:34.952Z,948.49
2016-06-15T04:13:34.955Z,948.48
2016-06-15T04:14:34.974Z,948.49
2016-06-15T04:15:34.993Z,948.45
2016-06-15T04:16:34.995Z,948.43
2016-06-15T04:17:34.999Z,948.48
2016-06-15T04:18:35.018Z,948.49
2016-06-15T04:19:35.021Z,948.48
2016-06-15T04:20:35.040Z,948.44
2016-06-15T04:21:35.043Z,948.45
2016-06-15T04:22:35.077Z,948.45
2016-06-15T04:23:35.080Z,948.49
2016-06-15T04:24:35.084Z,948.47
2016-06-15T04:25:35.086Z,948.5
2016-06-15T04:26:35.106Z,948.45
2016-06-15T04:27:35.123Z,948.48
2016-06-15T04:28:35.127Z,948.51
2016-06-15T04:29:35.130Z,948.53
2016-06-15T04:30:35.149Z,948.49
2016-06-15T04:31:35.152Z,948.48
2016-06-15T04:32:35.170Z,948.47
2016-06-15T04:33:35.173Z,948.5
2016-06-15T04:34:35.192Z,948.48
2016-06-15T04:35:35.195Z,948.49
2016-06-15T04:36:35.214Z,948.5
2016-06-15T04:37:35.217Z,948.45
2016-06-15T04:38:35.235Z,948.48
2016-06-15T04:39:35.238Z,948.48
2016-06-15T04:40:35.258Z,948.46
2016-06-15T04:41:35.260Z,948.44
2016-06-15T04:42:35.279Z,948.47
2016-06-15T04:43:35.282Z,948.46
2016-06-15T04:44:35.300Z,948.43
2016-06-15T04:45:35.303Z,948.47
2016-06-15T04:46:35.323Z,948.47
2016-06-15T04:47:35.325Z,948.48
2016-06-15T04:48:35.344Z,948.49
2016-06-15T04:49:35.347Z,948.48
2016-06-15T04:50:35.366Z,948.53
2016-06-15T04:51:35.369Z,948.54
2016-06-15T04:52:35.372Z,948.53
2016-06-15T04:53:35.391Z,948.55
2016-06-15T04:54:35.394Z,948.56
2016-06-15T04:55:35.412Z,948.53
2016-06-15T04:56:35.431Z,948.56
2016-06-15T04:57:35.435Z,948.58
2016-06-15T04:58:35.437Z,948.54
2016-06-15T04:59:35.457Z,948.6
2016-06-15T05:00:35.474Z,948.62
2016-06-15T05:01:35.478Z,948.59
2016-06-15T05:02:35.497Z,948.59
2016-06-15T05:03:35.500Z,948.64
2016-06-15T05:04:35.503Z,948.67
2016-06-15T05:05:35.521Z,948.69
2016-06-15T05:06:35.540Z,948.7
2016-06-15T05:07:35.543Z,948.74
2016-06-15T05:08:35.547Z,948.73
2016-06-15T05:09:35.565Z,948.75
2016-06-15T05:10:35.584Z,948.78
2016-06-15T05:11:35.586Z,948.83
2016-06-15T05:12:35.606Z,948.83
2016-06-15T05:13:35.609Z,948.82
2016-06-15T05:14:35.612Z,948.85
2016-06-15T05:15:35.631Z,948.86
2016-06-15T05:16:35.634Z,948.88
2016-06-15T05:17:35.652Z,948.88
2016-06-15T05:18:35.655Z,948.9
2016-06-15T05:19:35.675Z,948.93
2016-06-15T05:20:35.677Z,948.9
2016-06-15T05:21:35.696Z,948.92
2016-06-15T05:22:35.698Z,948.91
2016-06-15T05:23:35.718Z,948.92
2016-06-15T05:24:35.720Z,948.92
2016-06-15T05:25:35.740Z,948.92
2016-06-15T05:26:35.742Z,948.95
2016-06-15T05:27:35.761Z,948.96
2016-06-15T05:28:35.764Z,948.92
2016-06-15T05:29:35.783Z,948.95
2016-06-15T05:30:35.786Z,948.96
2016-06-15T05:31:35.789Z,948.96
2016-06-15T05:32:35.808Z,948.93
2016-06-15T05:33:35.826Z,948.91
2016-06-15T05:34:35.829Z,948.9
2016-06-15T05:35:35.849Z,948.93
2016-06-15T05:36:36.195Z,948.88
2016-06-15T05:37:35.869Z,948.9
2016-06-15T05:38:35.872Z,948.91
2016-06-15T05:39:35.891Z,948.94
2016-06-15T05:40:35.894Z,948.98
2016-06-15T05:41:35.914Z,948.97
2016-06-15T05:42:35.917Z,948.96
2016-06-15T05:43:35.919Z,948.94
2016-06-15T05:44:35.938Z,948.97
2016-06-15T05:45:35.941Z,948.94
2016-06-15T05:46:35.961Z,948.99
2016-06-15T05:47:35.963Z,949.02
2016-06-15T05:48:35.983Z,948.99
2016-06-15T05:49:35.985Z,949.01
2016-06-15T05:50:36.003Z,948.99
2016-06-15T05:51:36.022Z,948.99
2016-06-15T05:52:36.026Z,949.02
2016-06-15T05:53:36.043Z,948.99
2016-06-15T05:54:36.047Z,949.01
2016-06-15T05:55:36.065Z,949.03
2016-06-15T05:56:36.069Z,948.99
2016-06-15T05:57:36.072Z,949.03
2016-06-15T05:58:36.091Z,949.01
2016-06-15T05:59:36.109Z,949
2016-06-15T06:00:36.112Z,949
2016-06-15T06:01:36.131Z,948.97
2016-06-15T06:02:36.135Z,948.94
2016-06-15T06:03:36.153Z,948.87
2016-06-15T06:04:36.141Z,948.85
2016-06-15T06:05:36.159Z,948.82
2016-06-15T06:06:36.552Z,948.8
2016-06-15T06:07:36.181Z,948.84
2016-06-15T06:08:36.200Z,948.76
2016-06-15T06:09:36.202Z,948.78
2016-06-15T06:10:36.221Z,948.78
2016-06-15T06:11:36.224Z,948.77
2016-06-15T06:12:36.243Z,948.78
2016-06-15T06:13:36.247Z,948.72
2016-06-15T06:14:36.265Z,948.75
2016-06-15T06:15:36.284Z,948.74
2016-06-15T06:16:36.286Z,948.76
2016-06-15T06:17:36.306Z,948.76
2016-06-15T06:18:36.308Z,948.79
2016-06-15T06:19:36.312Z,948.81
2016-06-15T06:20:36.331Z,948.77
2016-06-15T06:21:36.334Z,948.77
2016-06-15T06:22:36.352Z,948.81
2016-06-15T06:23:36.355Z,948.83
2016-06-15T06:24:36.374Z,948.83
2016-06-15T06:25:36.377Z,948.82
2016-06-15T06:26:36.395Z,948.82
2016-06-15T06:27:36.398Z,948.8
2016-06-15T06:28:36.417Z,948.82
2016-06-15T06:29:36.421Z,948.78
2016-06-15T06:30:36.439Z,948.8
2016-06-15T06:31:36.443Z,948.77
2016-06-15T06:32:36.445Z,948.79
2016-06-15T06:33:36.464Z,948.74
2016-06-15T06:34:36.483Z,948.72
2016-06-15T06:35:36.486Z,948.75
2016-06-15T06:36:36.505Z,948.72
2016-06-15T06:37:36.507Z,948.74
2016-06-15T06:38:36.526Z,948.74
2016-06-15T06:39:36.529Z,948.76
2016-06-15T06:40:36.563Z,948.78
2016-06-15T06:41:36.551Z,948.77
2016-06-15T06:42:36.569Z,948.8
2016-06-15T06:43:36.572Z,948.85
2016-06-15T06:44:36.919Z,948.85
2016-06-15T06:45:36.595Z,948.85
2016-06-15T06:46:36.628Z,948.85
2016-06-15T06:47:36.617Z,948.85
2016-06-15T06:48:36.619Z,948.88
2016-06-15T06:49:36.638Z,948.83
2016-06-15T06:50:36.657Z,948.87
2016-06-15T06:51:36.988Z,948.89
2016-06-15T06:52:36.725Z,948.86
2016-06-15T06:53:36.682Z,948.9
2016-06-15T06:54:36.700Z,948.9
2016-06-15T06:55:36.704Z,948.89
2016-06-15T06:56:36.722Z,948.85
2016-06-15T06:57:36.726Z,948.88
2016-06-15T06:58:36.743Z,948.9
2016-06-15T06:59:36.747Z,948.93
2016-06-15T07:00:36.750Z,948.91
2016-06-15T07:01:36.769Z,948.94
2016-06-15T07:02:36.772Z,948.97
2016-06-15T07:03:36.791Z,948.96
2016-06-15T07:04:36.794Z,948.94
2016-06-15T07:05:36.812Z,948.97
2016-06-15T07:06:36.815Z,948.97
2016-06-15T07:07:36.834Z,948.99
2016-06-15T07:08:36.853Z,949.02
2016-06-15T07:09:36.856Z,949
2016-06-15T07:10:36.859Z,949
2016-06-15T07:11:36.878Z,948.99
2016-06-15T07:12:36.880Z,948.98
2016-06-15T07:13:36.900Z,948.99
2016-06-15T07:14:36.902Z,949.02
2016-06-15T07:15:36.921Z,949.06
2016-06-15T07:16:36.924Z,949.03
2016-06-15T07:17:36.943Z,949.03
2016-06-15T07:18:36.946Z,949.04
2016-06-15T07:19:36.965Z,949.04
2016-06-15T07:20:36.983Z,949.07
2016-06-15T07:21:36.987Z,949.03
2016-06-15T07:22:36.989Z,949.04
2016-06-15T07:23:37.008Z,949.07
2016-06-15T07:24:37.011Z,949.09
2016-06-15T07:25:37.031Z,949.03
2016-06-15T07:26:37.033Z,949.12
2016-06-15T07:27:37.052Z,949.05
2016-06-15T07:28:37.055Z,949.03
2016-06-15T07:29:37.074Z,949.09
2016-06-15T07:30:37.077Z,949.04
2016-06-15T07:31:37.095Z,948.99
2016-06-15T07:32:37.098Z,948.97
2016-06-15T07:33:37.133Z,948.99
2016-06-15T07:34:37.136Z,948.99
2016-06-15T07:35:37.139Z,948.94
2016-06-15T07:36:37.142Z,948.9
2016-06-15T07:37:37.160Z,948.91
2016-06-15T07:38:37.163Z,948.88
2016-06-15T07:39:37.182Z,948.9
2016-06-15T07:40:37.202Z,948.91
2016-06-15T07:41:37.205Z,948.91
2016-06-15T07:42:37.207Z,948.91
2016-06-15T07:43:37.226Z,948.93
2016-06-15T07:44:37.229Z,948.96
2016-06-15T07:45:37.248Z,948.96
2016-06-15T07:46:37.251Z,948.97
2016-06-15T07:47:37.269Z,948.94
2016-06-15T07:48:37.272Z,948.91
2016-06-15T07:49:37.291Z,948.91
2016-06-15T07:50:37.294Z,948.91
2016-06-15T07:51:37.297Z,948.86
2016-06-15T07:52:37.567Z,948.82
2016-06-15T07:53:37.319Z,948.84
2016-06-15T07:54:37.337Z,948.8
2016-06-15T07:55:37.341Z,948.84
2016-06-15T07:56:37.360Z,948.87
2016-06-15T07:57:37.363Z,948.85
2016-06-15T07:58:37.381Z,948.84
2016-06-15T07:59:37.400Z,948.85
2016-06-15T08:00:37.403Z,948.85
2016-06-15T08:01:37.406Z,948.83
2016-06-15T08:02:37.425Z,948.86
2016-06-15T08:03:37.443Z,948.83
2016-06-15T08:04:37.446Z,948.85
2016-06-15T08:05:37.449Z,948.86
2016-06-15T08:06:37.469Z,948.87
2016-06-15T08:07:37.487Z,948.92
2016-06-15T08:08:37.491Z,948.9
2016-06-15T08:09:37.494Z,948.93
2016-06-15T08:10:37.496Z,948.94
2016-06-15T08:11:37.515Z,948.95
2016-06-15T08:12:37.517Z,948.91
2016-06-15T08:13:37.537Z,948.88
2016-06-15T08:14:37.556Z,948.89
2016-06-15T08:15:37.559Z,948.86
2016-06-15T08:16:37.563Z,948.83
2016-06-15T08:17:37.580Z,948.81
2016-06-15T08:18:37.614Z,948.81
2016-06-15T08:19:37.586Z,948.8
2016-06-15T08:20:37.605Z,948.81
2016-06-15T08:21:37.609Z,948.8
2016-06-15T08:22:39.642Z,948.82
2016-06-15T08:23:37.849Z,948.81
2016-06-15T08:24:37.649Z,948.81
2016-06-15T08:25:37.668Z,948.83
2016-06-15T08:26:37.671Z,948.83
2016-06-15T08:27:37.674Z,948.84
2016-06-15T08:28:37.677Z,948.87
2016-06-15T08:29:37.695Z,948.83
2016-06-15T08:30:37.714Z,948.86
2016-06-15T08:31:37.717Z,948.85
2016-06-15T08:32:37.737Z,948.86
2016-06-15T08:33:37.739Z,948.84
2016-06-15T08:34:37.758Z,948.85
2016-06-15T08:35:37.761Z,948.85
2016-06-15T08:36:37.764Z,948.82
2016-06-15T08:37:37.783Z,948.8
2016-06-15T08:38:37.785Z,948.78
2016-06-15T08:39:37.804Z,948.75
2016-06-15T08:40:37.807Z,948.75
2016-06-15T08:41:37.826Z,948.77
2016-06-15T08:42:37.829Z,948.75
2016-06-15T08:43:37.848Z,948.73
2016-06-15T08:44:37.851Z,948.75
2016-06-15T08:45:38.464Z,948.79
2016-06-15T08:46:37.872Z,948.78
2016-06-15T08:47:37.892Z,948.8
2016-06-15T08:48:37.894Z,948.79
2016-06-15T08:49:37.913Z,948.77
2016-06-15T08:50:37.917Z,948.75
2016-06-15T08:51:37.934Z,948.72
2016-06-15T08:52:37.938Z,948.77
2016-06-15T08:53:37.956Z,948.76
2016-06-15T08:54:37.960Z,948.68
2016-06-15T08:55:39.025Z,948.71
2016-06-15T08:56:37.981Z,948.72
2016-06-15T08:57:38.000Z,948.68
2016-06-15T08:58:38.003Z,948.68
2016-06-15T08:59:38.006Z,948.71
2016-06-15T09:00:39.134Z,948.72
2016-06-15T09:01:38.044Z,948.72
2016-06-15T09:02:38.047Z,948.7
2016-06-15T09:03:38.050Z,948.69
2016-06-15T09:04:38.069Z,948.75
2016-06-15T09:05:38.072Z,948.72
2016-06-15T09:06:38.075Z,948.71
2016-06-15T09:07:38.094Z,948.75
2016-06-15T09:08:38.113Z,948.79
2016-06-15T09:09:38.115Z,948.73
2016-06-15T09:10:38.134Z,948.73
2016-06-15T09:11:38.138Z,948.7
2016-06-15T09:12:38.155Z,948.71
2016-06-15T09:13:38.152Z,948.7
2016-06-15T09:14:38.170Z,948.67
2016-06-15T09:15:45.362Z,948.71
2016-06-15T09:16:38.190Z,948.66
2016-06-15T09:17:38.193Z,948.63
2016-06-15T09:18:38.197Z,948.68
2016-06-15T09:19:38.214Z,948.64
2016-06-15T09:20:38.233Z,948.69
2016-06-15T09:21:38.253Z,948.65
2016-06-15T09:22:38.255Z,948.65
2016-06-15T09:23:38.259Z,948.59
2016-06-15T09:24:38.276Z,948.61
2016-06-15T09:25:38.280Z,948.63
2016-06-15T09:26:38.282Z,948.61
2016-06-15T09:27:38.302Z,948.61
2016-06-15T09:28:38.305Z,948.66
2016-06-15T09:29:38.318Z,948.67
2016-06-15T09:30:38.336Z,948.68
2016-06-15T09:31:38.339Z,948.65
2016-06-15T09:32:38.359Z,948.67
2016-06-15T09:33:38.362Z,948.73
2016-06-15T09:34:38.380Z,948.73
2016-06-15T09:35:38.384Z,948.73
2016-06-15T09:36:38.402Z,948.72
2016-06-15T09:37:38.404Z,948.73
2016-06-15T09:38:38.423Z,948.75
2016-06-15T09:39:38.426Z,948.77
2016-06-15T09:40:38.430Z,948.83
2016-06-15T09:41:38.449Z,948.84
2016-06-15T09:42:38.452Z,948.8
2016-06-15T09:43:38.470Z,948.81
2016-06-15T09:44:38.473Z,948.79
2016-06-15T09:45:38.493Z,948.86
2016-06-15T09:46:38.495Z,948.85
2016-06-15T09:47:38.513Z,948.88
2016-06-15T09:48:38.516Z,948.9
2016-06-15T09:49:38.536Z,948.89
2016-06-15T09:50:38.538Z,948.91
2016-06-15T09:51:38.558Z,948.9
2016-06-15T09:52:38.639Z,948.94
2016-06-15T09:53:38.564Z,948.97
2016-06-15T09:54:38.581Z,948.95
2016-06-15T09:55:38.585Z,948.96
2016-06-15T09:56:38.604Z,948.95
2016-06-15T09:57:38.607Z,948.96
2016-06-15T09:58:38.626Z,948.95
2016-06-15T09:59:38.630Z,948.86
2016-06-15T10:00:38.647Z,948.83
2016-06-15T10:01:38.650Z,948.87
2016-06-15T10:02:38.669Z,948.84
2016-06-15T10:03:38.672Z,948.82
2016-06-15T10:04:38.694Z,948.8
2016-06-15T10:05:38.752Z,948.79
2016-06-15T10:06:38.795Z,948.76
2016-06-15T10:07:38.855Z,948.69
2016-06-15T10:08:38.897Z,948.61
2016-06-15T10:09:38.944Z,948.65
2016-06-15T10:10:38.962Z,948.64
2016-06-15T10:11:38.993Z,948.65
2016-06-15T10:12:39.011Z,948.68
2016-06-15T10:13:39.045Z,948.74
2016-06-15T10:14:39.058Z,948.7
2016-06-15T10:15:39.082Z,948.7
2016-06-15T10:16:39.090Z,948.7
2016-06-15T10:17:47.895Z,948.69
2016-06-15T10:18:39.138Z,948.7
2016-06-15T10:19:39.145Z,948.75
2016-06-15T10:20:39.150Z,948.73
2016-06-15T10:21:39.170Z,948.78
2016-06-15T10:22:39.175Z,948.79
2016-06-15T10:23:39.180Z,948.78
2016-06-15T10:24:39.200Z,948.81
2016-06-15T10:25:39.220Z,948.8
2016-06-15T10:26:39.224Z,948.78
2016-06-15T10:27:39.226Z,948.76
2016-06-15T10:28:39.245Z,948.76
2016-06-15T10:29:39.249Z,948.75
2016-06-15T10:30:39.268Z,948.75
2016-06-15T10:31:39.287Z,948.68
2016-06-15T10:32:39.291Z,948.72
2016-06-15T10:33:39.309Z,948.75
2016-06-15T10:34:39.313Z,948.77
2016-06-15T10:35:39.363Z,948.8
2016-06-15T10:36:43.319Z,948.8
2016-06-15T10:37:42.589Z,948.8
2016-06-15T10:38:39.356Z,948.78
2016-06-15T10:39:40.000Z,948.77
2016-06-15T10:40:44.567Z,948.8
2016-06-15T10:41:43.945Z,948.83
2016-06-15T10:42:48.166Z,948.83
2016-06-15T10:43:43.982Z,948.83
2016-06-15T10:44:43.985Z,948.85
2016-06-15T10:45:44.535Z,948.84
2016-06-15T10:46:54.961Z,948.88
2016-06-15T10:48:16.528Z,948.85
2016-06-15T10:49:20.579Z,948.9
2016-06-15T10:50:24.144Z,948.83
2016-06-15T10:51:20.382Z,948.86
2016-06-15T10:53:33.622Z,948.9
2016-06-15T10:55:15.347Z,948.89
2016-06-15T10:55:55.800Z,948.91
2016-06-15T10:56:55.819Z,948.9
2016-06-15T10:57:55.822Z,948.91
2016-06-15T10:58:55.825Z,948.88
2016-06-15T10:59:55.844Z,948.87
2016-06-15T11:00:55.847Z,948.9
2016-06-15T11:01:55.866Z,948.92
2016-06-15T11:02:55.869Z,948.91
2016-06-15T11:03:55.888Z,948.89
2016-06-15T11:04:55.891Z,948.96
2016-06-15T11:05:55.909Z,948.97
2016-06-15T11:06:55.913Z,948.93
2016-06-15T11:07:56.087Z,948.95
2016-06-15T11:08:55.949Z,948.95
2016-06-15T11:09:55.953Z,948.95
2016-06-15T11:10:55.971Z,948.94
2016-06-15T11:11:55.975Z,948.93
2016-06-15T11:12:55.978Z,948.9
2016-06-15T11:13:55.997Z,948.88
2016-06-15T11:14:55.999Z,948.93
2016-06-15T11:15:56.003Z,948.92
2016-06-15T11:16:56.021Z,948.89
2016-06-15T11:17:56.040Z,948.95
2016-06-15T11:18:56.044Z,948.93
2016-06-15T11:19:56.062Z,948.95
2016-06-15T11:20:56.066Z,948.93
2016-06-15T11:21:56.084Z,948.91
2016-06-15T11:22:56.086Z,948.91
2016-06-15T11:23:56.105Z,948.95
2016-06-15T11:24:56.109Z,948.97
2016-06-15T11:25:56.126Z,948.93
2016-06-15T11:26:56.146Z,948.96
2016-06-15T11:27:56.149Z,949.06
2016-06-15T11:28:56.151Z,949.09
2016-06-15T11:29:56.171Z,949.07
2016-06-15T11:30:56.174Z,949.11
2016-06-15T11:31:56.192Z,949.16
2016-06-15T11:32:56.211Z,949.16
2016-06-15T11:33:56.214Z,949.18
2016-06-15T11:34:56.233Z,949.12
2016-06-15T11:35:56.237Z,949.1
2016-06-15T11:36:56.240Z,949.1
2016-06-15T11:37:56.257Z,949.07
2016-06-15T11:38:56.276Z,949.12
2016-06-15T11:39:56.279Z,949.08
2016-06-15T11:40:56.297Z,949.13
2016-06-15T11:41:56.301Z,949.13
2016-06-15T11:42:56.320Z,949.1
2016-06-15T11:43:56.339Z,949.09
2016-06-15T11:44:56.342Z,949.09
2016-06-15T11:45:56.360Z,949.07
2016-06-15T11:46:56.364Z,949.04
2016-06-15T11:47:56.382Z,949.1
2016-06-15T11:48:56.385Z,949.1
2016-06-15T11:49:56.389Z,949.1
2016-06-15T11:50:56.407Z,949.06
2016-06-15T11:51:56.426Z,949.05
2016-06-15T11:52:56.585Z,949.05
2016-06-15T11:53:56.448Z,949.04
2016-06-15T11:54:56.466Z,948.97
2016-06-15T11:55:56.468Z,948.97
2016-06-15T11:56:56.472Z,949.01
2016-06-15T11:57:56.491Z,948.99
2016-06-15T11:58:56.494Z,948.97
2016-06-15T11:59:56.514Z,949
2016-06-15T12:00:56.516Z,949.03
2016-06-15T12:01:56.535Z,949.01
2016-06-15T12:02:56.570Z,949.01
2016-06-15T12:03:56.557Z,949.03
2016-06-15T12:04:56.576Z,949.1
2016-06-15T12:05:56.578Z,949.08
2016-06-15T12:06:56.597Z,949.05
2016-06-15T12:07:56.599Z,949.14
2016-06-15T12:08:56.619Z,949.11
2016-06-15T12:09:56.622Z,949.14
2016-06-15T12:10:56.640Z,949.15
2016-06-15T12:11:56.659Z,949.16
2016-06-15T12:12:56.662Z,949.17
2016-06-15T12:13:56.681Z,949.11
2016-06-15T12:14:56.685Z,949.18
2016-06-15T12:15:56.703Z,949.17
2016-06-15T12:16:56.705Z,949.18
2016-06-15T12:17:56.724Z,949.17
2016-06-15T12:18:56.728Z,949.24
2016-06-15T12:19:56.762Z,949.2
2016-06-15T12:20:56.765Z,949.24
2016-06-15T12:21:56.768Z,949.24
2016-06-15T12:22:57.176Z,949.25
2016-06-15T12:23:56.790Z,949.24
2016-06-15T12:24:56.793Z,949.25
2016-06-15T12:25:56.811Z,949.22
2016-06-15T12:26:56.830Z,949.24
2016-06-15T12:27:56.833Z,949.33
2016-06-15T12:28:56.852Z,949.27
2016-06-15T12:29:56.856Z,949.28
2016-06-15T12:30:56.874Z,949.29
2016-06-15T12:31:56.877Z,949.28
2016-06-15T12:32:56.895Z,949.27
2016-06-15T12:33:56.898Z,949.3